sensor_id;sensor_type;location;lat;lon;timestamp;pressure;altitude;pressure_sealevel;temperature;humidity
50682;BME280;36779;52.168;20.878;2023-03-04T00:29:45;100189.45;;;0.07;74.37
50682;BME280;36779;52.168;20.878;2023-03-04T00:33:13;100187.80;;;0.06;74.59
50682;BME280;36779;52.168;20.878;2023-03-04T00:36:05;100180.96;;;0.06;74.40
50682;BME280;36779;52.168;20.878;2023-03-04T00:38:55;100167.83;;;0.06;74.54
50682;BME280;36779;52.168;20.878;2023-03-04T00:41:44;100157.62;;;0.08;74.57
50682;BME280;36779;52.168;20.878;2023-03-04T00:44:35;100154.45;;;0.08;74.66
50682;BME280;36779;52.168;20.878;2023-03-04T00:47:24;100155.57;;;0.04;74.59
50682;BME280;36779;52.168;20.878;2023-03-04T00:50:15;100153.46;;;0.02;74.49
50682;BME280;36779;52.168;20.878;2023-03-04T00:53:06;100149.34;;;-0.02;74.54
50682;BME280;36779;52.168;20.878;2023-03-04T00:55:57;100148.05;;;-0.04;74.61
50682;BME280;36779;52.168;20.878;2023-03-04T00:58:47;100140.36;;;-0.04;74.57
50682;BME280;36779;52.168;20.878;2023-03-04T01:01:37;100140.14;;;-0.03;74.65
50682;BME280;36779;52.168;20.878;2023-03-04T01:04:27;100134.71;;;-0.00;74.63
50682;BME280;36779;52.168;20.878;2023-03-04T01:07:17;100134.02;;;0.02;74.65
50682;BME280;36779;52.168;20.878;2023-03-04T01:10:10;100127.90;;;0.03;74.57
50682;BME280;36779;52.168;20.878;2023-03-04T01:13:01;100126.24;;;0.01;74.59
50682;BME280;36779;52.168;20.878;2023-03-04T01:15:53;100127.89;;;0.00;74.64
50682;BME280;36779;52.168;20.878;2023-03-04T01:18:45;100120.59;;;-0.01;74.67
50682;BME280;36779;52.168;20.878;2023-03-04T01:21:36;100112.15;;;-0.03;74.62
50682;BME280;36779;52.168;20.878;2023-03-04T01:24:29;100109.05;;;-0.03;74.58
50682;BME280;36779;52.168;20.878;2023-03-04T01:27:19;100100.04;;;-0.04;74.60
50682;BME280;36779;52.168;20.878;2023-03-04T01:30:12;100098.92;;;-0.06;74.69
50682;BME280;36779;52.168;20.878;2023-03-04T01:33:04;100084.35;;;-0.05;74.59
50682;BME280;36779;52.168;20.878;2023-03-04T01:35:54;100078.13;;;-0.03;74.63
50682;BME280;36779;52.168;20.878;2023-03-04T01:38:47;100072.27;;;-0.02;74.63
50682;BME280;36779;52.168;20.878;2023-03-04T01:41:37;100057.39;;;-0.01;74.68
50682;BME280;36779;52.168;20.878;2023-03-04T01:44:29;100031.04;;;-0.02;74.66
50682;BME280;36779;52.168;20.878;2023-03-04T01:47:16;100014.58;;;-0.06;74.63
50682;BME280;36779;52.168;20.878;2023-03-04T01:50:16;100012.85;;;-0.12;74.57
50682;BME280;36779;52.168;20.878;2023-03-04T01:53:00;100012.46;;;-0.16;74.49
50682;BME280;36779;52.168;20.878;2023-03-04T01:55:52;100007.40;;;-0.16;74.58
50682;BME280;36779;52.168;20.878;2023-03-04T01:58:43;99992.63;;;-0.17;74.68
50682;BME280;36779;52.168;20.878;2023-03-04T02:01:34;99993.52;;;-0.18;74.56
50682;BME280;36779;52.168;20.878;2023-03-04T02:04:27;99986.11;;;-0.16;74.57
50682;BME280;36779;52.168;20.878;2023-03-04T02:07:17;99984.52;;;-0.14;74.59
50682;BME280;36779;52.168;20.878;2023-03-04T02:10:12;99980.58;;;-0.12;74.75
50682;BME280;36779;52.168;20.878;2023-03-04T02:13:04;99967.84;;;-0.12;74.72
50682;BME280;36779;52.168;20.878;2023-03-04T02:15:55;99946.96;;;-0.14;74.67
50682;BME280;36779;52.168;20.878;2023-03-04T02:18:46;99941.11;;;-0.18;74.71
50682;BME280;36779;52.168;20.878;2023-03-04T02:21:31;99943.17;;;-0.20;74.61
50682;BME280;36779;52.168;20.878;2023-03-04T02:24:28;99936.90;;;-0.20;74.69
50682;BME280;36779;52.168;20.878;2023-03-04T02:27:19;99936.84;;;-0.17;74.75
50682;BME280;36779;52.168;20.878;2023-03-04T02:30:18;99931.88;;;-0.13;74.85
50682;BME280;36779;52.168;20.878;2023-03-04T02:33:15;99939.77;;;-0.08;74.73
50682;BME280;36779;52.168;20.878;2023-03-04T02:36:10;99938.41;;;-0.04;74.73
50682;BME280;36779;52.168;20.878;2023-03-04T02:39:03;99937.95;;;-0.02;74.77
50682;BME280;36779;52.168;20.878;2023-03-04T02:41:55;99941.13;;;0.00;74.81
50682;BME280;36779;52.168;20.878;2023-03-04T02:44:47;99944.33;;;0.02;74.82
50682;BME280;36779;52.168;20.878;2023-03-04T02:47:38;99947.52;;;0.04;74.85
50682;BME280;36779;52.168;20.878;2023-03-04T02:50:32;99952.07;;;0.04;74.74
50682;BME280;36779;52.168;20.878;2023-03-04T02:53:23;99952.00;;;0.05;74.74
50682;BME280;36779;52.168;20.878;2023-03-04T02:56:14;99949.43;;;0.06;74.69
50682;BME280;36779;52.168;20.878;2023-03-04T02:59:05;99949.27;;;0.09;74.81
50682;BME280;36779;52.168;20.878;2023-03-04T03:01:55;99951.09;;;0.13;74.75
50682;BME280;36779;52.168;20.878;2023-03-04T03:04:45;99951.17;;;0.16;74.89
50682;BME280;36779;52.168;20.878;2023-03-04T03:07:36;99946.98;;;0.21;74.88
50682;BME280;36779;52.168;20.878;2023-03-04T03:10:26;99944.48;;;0.25;74.79
50682;BME280;36779;52.168;20.878;2023-03-04T03:13:16;99936.99;;;0.27;74.85
50682;BME280;36779;52.168;20.878;2023-03-04T03:16:07;99937.87;;;0.27;74.84
50682;BME280;36779;52.168;20.878;2023-03-04T03:18:57;99939.19;;;0.26;74.87
50682;BME280;36779;52.168;20.878;2023-03-04T03:21:49;99938.47;;;0.26;74.73
50682;BME280;36779;52.168;20.878;2023-03-04T03:24:38;99937.52;;;0.27;74.79
50682;BME280;36779;52.168;20.878;2023-03-04T03:27:28;99932.58;;;0.30;74.73
50682;BME280;36779;52.168;20.878;2023-03-04T03:30:20;99929.40;;;0.33;74.85
50682;BME280;36779;52.168;20.878;2023-03-04T03:33:11;99928.63;;;0.37;74.97
50682;BME280;36779;52.168;20.878;2023-03-04T03:36:07;99924.17;;;0.40;74.98
50682;BME280;36779;52.168;20.878;2023-03-04T03:38:57;99921.36;;;0.43;74.90
50682;BME280;36779;52.168;20.878;2023-03-04T03:41:48;99919.94;;;0.43;74.97
50682;BME280;36779;52.168;20.878;2023-03-04T03:44:39;99917.54;;;0.42;74.87
50682;BME280;36779;52.168;20.878;2023-03-04T03:47:30;99913.73;;;0.42;75.01
50682;BME280;36779;52.168;20.878;2023-03-04T03:50:21;99911.77;;;0.42;74.84
50682;BME280;36779;52.168;20.878;2023-03-04T03:53:12;99908.59;;;0.42;74.83
50682;BME280;36779;52.168;20.878;2023-03-04T03:56:02;99907.70;;;0.45;74.93
50682;BME280;36779;52.168;20.878;2023-03-04T03:58:51;99900.81;;;0.49;74.92
50682;BME280;36779;52.168;20.878;2023-03-04T04:01:43;99900.20;;;0.53;74.85
50682;BME280;36779;52.168;20.878;2023-03-04T04:04:34;99902.19;;;0.57;74.98
50682;BME280;36779;52.168;20.878;2023-03-04T04:07:25;99901.55;;;0.58;74.91
50682;BME280;36779;52.168;20.878;2023-03-04T04:10:14;99896.33;;;0.55;74.95
50682;BME280;36779;52.168;20.878;2023-03-04T04:13:04;99893.35;;;0.53;74.89
50682;BME280;36779;52.168;20.878;2023-03-04T04:15:57;99898.07;;;0.53;74.87
50682;BME280;36779;52.168;20.878;2023-03-04T04:18:47;99895.09;;;0.56;74.83
50682;BME280;36779;52.168;20.878;2023-03-04T04:21:37;99895.64;;;0.58;74.83
50682;BME280;36779;52.168;20.878;2023-03-04T04:24:27;99890.26;;;0.60;74.95
50682;BME280;36779;52.168;20.878;2023-03-04T04:27:16;99895.05;;;0.61;74.82
50682;BME280;36779;52.168;20.878;2023-03-04T04:30:09;99889.20;;;0.62;74.77
50682;BME280;36779;52.168;20.878;2023-03-04T04:32:59;99889.74;;;0.62;75.01
50682;BME280;36779;52.168;20.878;2023-03-04T04:35:56;99888.34;;;0.62;74.84
50682;BME280;36779;52.168;20.878;2023-03-04T04:38:40;99887.63;;;0.62;74.93
50682;BME280;36779;52.168;20.878;2023-03-04T04:41:34;99887.71;;;0.63;74.90
50682;BME280;36779;52.168;20.878;2023-03-04T04:44:24;99884.04;;;0.63;74.90
50682;BME280;36779;52.168;20.878;2023-03-04T04:47:17;99882.86;;;0.67;75.01
50682;BME280;36779;52.168;20.878;2023-03-04T04:50:11;99883.73;;;0.73;74.84
50682;BME280;36779;52.168;20.878;2023-03-04T04:53:05;99877.35;;;0.76;74.89
50682;BME280;36779;52.168;20.878;2023-03-04T04:55:58;99874.14;;;0.77;74.89
50682;BME280;36779;52.168;20.878;2023-03-04T04:58:51;99873.38;;;0.78;74.90
50682;BME280;36779;52.168;20.878;2023-03-04T05:01:43;99874.02;;;0.79;74.88
50682;BME280;36779;52.168;20.878;2023-03-04T05:04:35;99869.67;;;0.78;74.98
50682;BME280;36779;52.168;20.878;2023-03-04T05:07:30;99872.43;;;0.74;74.91
50682;BME280;36779;52.168;20.878;2023-03-04T05:10:29;99871.66;;;0.73;74.83
50682;BME280;36779;52.168;20.878;2023-03-04T05:13:24;99871.77;;;0.76;75.02
50682;BME280;36779;52.168;20.878;2023-03-04T05:16:18;99871.56;;;0.79;74.93
50682;BME280;36779;52.168;20.878;2023-03-04T05:19:09;99869.40;;;0.82;74.89
50682;BME280;36779;52.168;20.878;2023-03-04T05:22:00;99864.23;;;0.85;75.02
50682;BME280;36779;52.168;20.878;2023-03-04T05:24:53;99858.34;;;0.87;74.93
50682;BME280;36779;52.168;20.878;2023-03-04T05:27:43;99855.20;;;0.89;75.05
50682;BME280;36779;52.168;20.878;2023-03-04T05:30:34;99851.50;;;0.89;74.97
50682;BME280;36779;52.168;20.878;2023-03-04T05:33:23;99850.04;;;0.88;74.95
50682;BME280;36779;52.168;20.878;2023-03-04T05:36:14;99844.91;;;0.86;75.03
50682;BME280;36779;52.168;20.878;2023-03-04T05:39:05;99848.59;;;0.86;74.94
50682;BME280;36779;52.168;20.878;2023-03-04T05:41:57;99846.30;;;0.86;74.90
50682;BME280;36779;52.168;20.878;2023-03-04T05:44:51;99847.23;;;0.88;75.00
50682;BME280;36779;52.168;20.878;2023-03-04T05:47:41;99850.43;;;0.90;74.98
50682;BME280;36779;52.168;20.878;2023-03-04T05:50:35;99850.63;;;0.92;74.90
50682;BME280;36779;52.168;20.878;2023-03-04T05:53:31;99849.85;;;0.95;74.98
50682;BME280;36779;52.168;20.878;2023-03-04T05:56:33;99846.63;;;0.96;74.91
50682;BME280;36779;52.168;20.878;2023-03-04T05:59:24;99843.91;;;0.95;74.97
50682;BME280;36779;52.168;20.878;2023-03-04T06:02:15;99842.45;;;0.94;75.02
50682;BME280;36779;52.168;20.878;2023-03-04T06:05:12;99837.02;;;0.91;74.95
50682;BME280;36779;52.168;20.878;2023-03-04T06:08:05;99836.02;;;0.89;74.89
50682;BME280;36779;52.168;20.878;2023-03-04T06:11:18;99836.90;;;0.88;74.79
50682;BME280;36779;52.168;20.878;2023-03-04T06:14:09;99837.48;;;0.90;74.84
50682;BME280;36779;52.168;20.878;2023-03-04T06:17:06;99835.28;;;0.91;74.84
50682;BME280;36779;52.168;20.878;2023-03-04T06:19:58;99828.66;;;0.93;74.84
50682;BME280;36779;52.168;20.878;2023-03-04T06:22:54;99829.05;;;0.98;74.89
50682;BME280;36779;52.168;20.878;2023-03-04T06:25:45;99824.98;;;1.01;74.97
50682;BME280;36779;52.168;20.878;2023-03-04T06:28:36;99823.42;;;1.00;74.88
50682;BME280;36779;52.168;20.878;2023-03-04T06:31:27;99818.92;;;1.00;74.89
50682;BME280;36779;52.168;20.878;2023-03-04T06:34:17;99819.48;;;0.99;74.93
50682;BME280;36779;52.168;20.878;2023-03-04T06:37:09;99823.84;;;0.97;74.88
50682;BME280;36779;52.168;20.878;2023-03-04T06:40:01;99821.20;;;0.97;74.89
50682;BME280;36779;52.168;20.878;2023-03-04T06:46:01;99821.80;;;1.01;74.93
50682;BME280;36779;52.168;20.878;2023-03-04T06:48:53;99818.29;;;1.04;74.80
50682;BME280;36779;52.168;20.878;2023-03-04T06:51:43;99818.67;;;1.05;74.82
50682;BME280;36779;52.168;20.878;2023-03-04T06:54:35;99823.98;;;1.07;74.83
50682;BME280;36779;52.168;20.878;2023-03-04T06:57:27;99827.09;;;1.07;74.95
50682;BME280;36779;52.168;20.878;2023-03-04T07:00:20;99826.04;;;1.07;74.91
50682;BME280;36779;52.168;20.878;2023-03-04T07:03:12;99828.15;;;1.05;74.87
50682;BME280;36779;52.168;20.878;2023-03-04T07:06:24;99832.08;;;1.04;74.85
50682;BME280;36779;52.168;20.878;2023-03-04T07:09:15;99825.99;;;1.06;74.92
50682;BME280;36779;52.168;20.878;2023-03-04T07:12:06;99825.27;;;1.08;74.99
50682;BME280;36779;52.168;20.878;2023-03-04T07:14:58;99826.61;;;1.11;74.85
50682;BME280;36779;52.168;20.878;2023-03-04T07:17:48;99830.61;;;1.14;74.94
50682;BME280;36779;52.168;20.878;2023-03-04T07:20:38;99830.48;;;1.18;74.98
50682;BME280;36779;52.168;20.878;2023-03-04T07:23:29;99826.22;;;1.19;74.97
50682;BME280;36779;52.168;20.878;2023-03-04T07:26:20;99820.40;;;1.20;74.97
50682;BME280;36779;52.168;20.878;2023-03-04T07:29:12;99820.35;;;1.17;74.88
50682;BME280;36779;52.168;20.878;2023-03-04T07:32:05;99817.92;;;1.17;74.92
50682;BME280;36779;52.168;20.878;2023-03-04T07:34:57;99815.14;;;1.20;74.98
50682;BME280;36779;52.168;20.878;2023-03-04T07:37:47;99811.27;;;1.22;74.94
50682;BME280;36779;52.168;20.878;2023-03-04T07:40:39;99809.27;;;1.26;74.87
50682;BME280;36779;52.168;20.878;2023-03-04T07:43:30;99806.73;;;1.29;74.92
50682;BME280;36779;52.168;20.878;2023-03-04T07:46:20;99805.10;;;1.34;74.95
50682;BME280;36779;52.168;20.878;2023-03-04T07:49:12;99804.23;;;1.39;74.97
50682;BME280;36779;52.168;20.878;2023-03-04T07:52:05;99801.97;;;1.41;74.94
50682;BME280;36779;52.168;20.878;2023-03-04T07:54:57;99803.50;;;1.41;74.97
50682;BME280;36779;52.168;20.878;2023-03-04T07:57:47;99792.75;;;1.40;75.02
50682;BME280;36779;52.168;20.878;2023-03-04T08:00:39;99791.70;;;1.40;74.91
50682;BME280;36779;52.168;20.878;2023-03-04T08:03:32;99793.32;;;1.39;74.84
50682;BME280;36779;52.168;20.878;2023-03-04T08:06:23;99795.45;;;1.41;74.97
50682;BME280;36779;52.168;20.878;2023-03-04T08:09:14;99792.27;;;1.44;74.88
50682;BME280;36779;52.168;20.878;2023-03-04T08:12:15;99786.88;;;1.48;75.07
50682;BME280;36779;52.168;20.878;2023-03-04T08:15:29;99786.47;;;1.49;74.85
50682;BME280;36779;52.168;20.878;2023-03-04T08:18:20;99782.75;;;1.49;74.95
50682;BME280;36779;52.168;20.878;2023-03-04T08:21:11;99786.06;;;1.47;74.82
50682;BME280;36779;52.168;20.878;2023-03-04T08:24:02;99784.41;;;1.46;74.93
50682;BME280;36779;52.168;20.878;2023-03-04T08:26:57;99787.73;;;1.46;74.73
50682;BME280;36779;52.168;20.878;2023-03-04T08:29:47;99782.89;;;1.48;74.82
50682;BME280;36779;52.168;20.878;2023-03-04T08:32:37;99785.11;;;1.50;74.94
50682;BME280;36779;52.168;20.878;2023-03-04T08:35:27;99781.02;;;1.54;74.92
50682;BME280;36779;52.168;20.878;2023-03-04T08:38:17;99782.20;;;1.56;74.88
50682;BME280;36779;52.168;20.878;2023-03-04T08:41:09;99780.36;;;1.60;74.98
50682;BME280;36779;52.168;20.878;2023-03-04T08:44:00;99778.73;;;1.60;74.86
50682;BME280;36779;52.168;20.878;2023-03-04T08:46:50;99776.37;;;1.59;74.84
50682;BME280;36779;52.168;20.878;2023-03-04T08:49:39;99773.17;;;1.55;74.78
50682;BME280;36779;52.168;20.878;2023-03-04T08:52:34;99774.67;;;1.54;74.81
50682;BME280;36779;52.168;20.878;2023-03-04T08:55:24;99772.23;;;1.56;74.89
50682;BME280;36779;52.168;20.878;2023-03-04T08:58:15;99774.84;;;1.61;74.91
50682;BME280;36779;52.168;20.878;2023-03-04T09:01:11;99771.64;;;1.64;74.84
50682;BME280;36779;52.168;20.878;2023-03-04T09:04:01;99769.67;;;1.67;74.84
50682;BME280;36779;52.168;20.878;2023-03-04T09:06:52;99767.96;;;1.68;74.88
50682;BME280;36779;52.168;20.878;2023-03-04T09:09:43;99767.36;;;1.67;74.89
50682;BME280;36779;52.168;20.878;2023-03-04T09:12:44;99763.11;;;1.65;74.87
50682;BME280;36779;52.168;20.878;2023-03-04T09:15:34;99763.14;;;1.65;74.89
50682;BME280;36779;52.168;20.878;2023-03-04T09:18:25;99757.79;;;1.66;74.75
50682;BME280;36779;52.168;20.878;2023-03-04T09:21:14;99754.40;;;1.70;74.93
50682;BME280;36779;52.168;20.878;2023-03-04T09:24:05;99744.19;;;1.74;74.98
50682;BME280;36779;52.168;20.878;2023-03-04T09:26:55;99738.52;;;1.82;74.95
50682;BME280;36779;52.168;20.878;2023-03-04T09:29:46;99736.44;;;1.90;75.06
50682;BME280;36779;52.168;20.878;2023-03-04T09:32:38;99731.30;;;1.98;75.00
50682;BME280;36779;52.168;20.878;2023-03-04T09:35:29;99726.89;;;2.02;75.02
50682;BME280;36779;52.168;20.878;2023-03-04T09:38:21;99722.12;;;2.07;74.88
50682;BME280;36779;52.168;20.878;2023-03-04T09:41:17;99718.74;;;2.12;74.96
50682;BME280;36779;52.168;20.878;2023-03-04T09:44:17;99721.19;;;2.15;74.93
50682;BME280;36779;52.168;20.878;2023-03-04T09:47:12;99721.02;;;2.14;74.77
50682;BME280;36779;52.168;20.878;2023-03-04T09:50:23;99712.06;;;2.15;74.81
50682;BME280;36779;52.168;20.878;2023-03-04T09:53:20;99709.37;;;2.18;74.62
50682;BME280;36779;52.168;20.878;2023-03-04T09:56:14;99706.37;;;2.24;74.87
50682;BME280;36779;52.168;20.878;2023-03-04T09:59:15;99699.73;;;2.30;74.80
50682;BME280;36779;52.168;20.878;2023-03-04T10:02:15;99700.03;;;2.33;74.83
50682;BME280;36779;52.168;20.878;2023-03-04T10:05:04;99697.63;;;2.39;74.92
50682;BME280;36779;52.168;20.878;2023-03-04T10:07:58;99697.67;;;2.40;74.92
50682;BME280;36779;52.168;20.878;2023-03-04T10:10:52;99695.00;;;2.43;74.89
50682;BME280;36779;52.168;20.878;2023-03-04T10:13:52;99694.01;;;2.44;74.80
50682;BME280;36779;52.168;20.878;2023-03-04T10:16:45;99692.44;;;2.46;74.85
50682;BME280;36779;52.168;20.878;2023-03-04T10:19:43;99691.67;;;2.49;74.78
50682;BME280;36779;52.168;20.878;2023-03-04T10:22:39;99687.58;;;2.50;74.74
50682;BME280;36779;52.168;20.878;2023-03-04T10:25:32;99683.48;;;2.52;74.68
50682;BME280;36779;52.168;20.878;2023-03-04T10:28:25;99678.37;;;2.55;74.70
50682;BME280;36779;52.168;20.878;2023-03-04T10:31:21;99678.06;;;2.57;74.82
50682;BME280;36779;52.168;20.878;2023-03-04T10:34:20;99680.01;;;2.56;74.77
50682;BME280;36779;52.168;20.878;2023-03-04T10:37:14;99671.37;;;2.56;74.76
50682;BME280;36779;52.168;20.878;2023-03-04T10:40:18;99670.23;;;2.58;74.74
50682;BME280;36779;52.168;20.878;2023-03-04T10:43:26;99667.25;;;2.60;74.81
50682;BME280;36779;52.168;20.878;2023-03-04T10:46:19;99655.76;;;2.61;74.88
50682;BME280;36779;52.168;20.878;2023-03-04T10:49:15;99657.85;;;2.64;74.75
50682;BME280;36779;52.168;20.878;2023-03-04T10:52:17;99651.45;;;2.69;74.85
50682;BME280;36779;52.168;20.878;2023-03-04T10:55:15;99653.39;;;2.77;74.83
50682;BME280;36779;52.168;20.878;2023-03-04T10:58:10;99646.24;;;2.80;74.67
50682;BME280;36779;52.168;20.878;2023-03-04T11:01:04;99640.86;;;2.81;74.76
50682;BME280;36779;52.168;20.878;2023-03-04T11:03:36;99641.10;;;2.85;74.67
50682;BME280;36779;52.168;20.878;2023-03-04T11:06:29;99635.61;;;2.86;74.70
50682;BME280;36779;52.168;20.878;2023-03-04T11:09:25;99637.15;;;2.88;74.75
50682;BME280;36779;52.168;20.878;2023-03-04T11:12:19;99642.98;;;2.94;74.73
50682;BME280;36779;52.168;20.878;2023-03-04T11:15:20;99640.41;;;2.97;74.72
50682;BME280;36779;52.168;20.878;2023-03-04T11:18:17;99629.12;;;3.02;74.65
50682;BME280;36779;52.168;20.878;2023-03-04T11:21:15;99631.79;;;3.03;74.61
50682;BME280;36779;52.168;20.878;2023-03-04T11:24:13;99635.27;;;3.04;74.59
50682;BME280;36779;52.168;20.878;2023-03-04T11:27:43;99630.96;;;3.05;74.68
50682;BME280;36779;52.168;20.878;2023-03-04T11:30:43;99622.42;;;3.06;74.76
50682;BME280;36779;52.168;20.878;2023-03-04T11:33:42;99627.81;;;3.07;74.63
50682;BME280;36779;52.168;20.878;2023-03-04T11:36:47;99625.00;;;3.05;74.69
50682;BME280;36779;52.168;20.878;2023-03-04T11:39:48;99622.31;;;3.03;74.59
50682;BME280;36779;52.168;20.878;2023-03-04T11:42:46;99614.39;;;3.04;74.60
50682;BME280;36779;52.168;20.878;2023-03-04T11:45:57;99614.23;;;3.08;74.70
50682;BME280;36779;52.168;20.878;2023-03-04T11:49:03;99613.45;;;3.09;74.66
50682;BME280;36779;52.168;20.878;2023-03-04T11:52:02;99610.38;;;3.05;74.55
50682;BME280;36779;52.168;20.878;2023-03-04T11:55:17;99615.15;;;3.03;74.62
50682;BME280;36779;52.168;20.878;2023-03-04T11:58:31;99612.71;;;3.01;74.63
50682;BME280;36779;52.168;20.878;2023-03-04T12:01:31;99612.05;;;2.96;74.54
50682;BME280;36779;52.168;20.878;2023-03-04T12:05:00;99607.93;;;2.93;74.57
50682;BME280;36779;52.168;20.878;2023-03-04T12:08:11;99605.70;;;2.89;74.44
50682;BME280;36779;52.168;20.878;2023-03-04T12:11:04;99603.47;;;2.86;74.61
50682;BME280;36779;52.168;20.878;2023-03-04T12:20:50;99605.38;;;2.90;74.59
50682;BME280;36779;52.168;20.878;2023-03-04T12:24:22;99601.88;;;2.82;74.56
50682;BME280;36779;52.168;20.878;2023-03-04T12:27:21;99607.75;;;2.75;74.55
50682;BME280;36779;52.168;20.878;2023-03-04T12:30:20;99604.86;;;2.68;74.32
50682;BME280;36779;52.168;20.878;2023-03-04T12:33:14;99600.66;;;2.61;74.38
50682;BME280;36779;52.168;20.878;2023-03-04T12:36:17;99609.64;;;2.57;74.24
50682;BME280;36779;52.168;20.878;2023-03-04T12:39:18;99615.54;;;2.47;74.24
50682;BME280;36779;52.168;20.878;2023-03-04T12:42:20;99616.92;;;2.37;74.18
50682;BME280;36779;52.168;20.878;2023-03-04T12:45:19;99616.36;;;2.33;74.21
50682;BME280;36779;52.168;20.878;2023-03-04T12:48:21;99617.09;;;2.31;74.39
50682;BME280;36779;52.168;20.878;2023-03-04T12:51:19;99611.16;;;2.34;74.63
50682;BME280;36779;52.168;20.878;2023-03-04T12:54:21;99610.74;;;2.37;74.60
50682;BME280;36779;52.168;20.878;2023-03-04T12:57:17;99611.13;;;2.41;74.60
50682;BME280;36779;52.168;20.878;2023-03-04T13:00:23;99607.73;;;2.46;74.59
50682;BME280;36779;52.168;20.878;2023-03-04T13:03:25;99609.52;;;2.50;74.59
50682;BME280;36779;52.168;20.878;2023-03-04T13:06:27;99602.02;;;2.53;74.61
50682;BME280;36779;52.168;20.878;2023-03-04T13:09:23;99598.97;;;2.67;74.83
50682;BME280;36779;52.168;20.878;2023-03-04T13:12:18;99587.80;;;2.76;74.90
50682;BME280;36779;52.168;20.878;2023-03-04T13:15:27;99583.47;;;2.86;74.95
50682;BME280;36779;52.168;20.878;2023-03-04T13:18:34;99582.63;;;2.96;74.93
50682;BME280;36779;52.168;20.878;2023-03-04T13:21:28;99582.81;;;2.99;74.86
50682;BME280;36779;52.168;20.878;2023-03-04T13:24:42;99586.35;;;3.01;74.83
50682;BME280;36779;52.168;20.878;2023-03-04T13:27:48;99585.70;;;3.02;74.88
50682;BME280;36779;52.168;20.878;2023-03-04T13:31:12;99591.95;;;3.03;74.71
50682;BME280;36779;52.168;20.878;2023-03-04T13:34:39;99592.23;;;3.06;74.82
50682;BME280;36779;52.168;20.878;2023-03-04T13:37:29;99593.42;;;3.15;74.99
50682;BME280;36779;52.168;20.878;2023-03-04T13:40:36;99591.00;;;3.26;75.01
50682;BME280;36779;52.168;20.878;2023-03-04T13:43:39;99585.02;;;3.37;75.06
50682;BME280;36779;52.168;20.878;2023-03-04T13:46:38;99582.71;;;3.43;75.03
50682;BME280;36779;52.168;20.878;2023-03-04T13:49:32;99580.70;;;3.45;74.94
50682;BME280;36779;52.168;20.878;2023-03-04T13:52:39;99579.70;;;3.47;74.95
50682;BME280;36779;52.168;20.878;2023-03-04T13:55:37;99587.77;;;3.47;74.70
50682;BME280;36779;52.168;20.878;2023-03-04T13:58:35;99592.66;;;3.45;74.73
50682;BME280;36779;52.168;20.878;2023-03-04T14:01:28;99605.02;;;3.35;74.41
50682;BME280;36779;52.168;20.878;2023-03-04T14:04:22;99596.45;;;3.18;74.39
50682;BME280;36779;52.168;20.878;2023-03-04T14:07:24;99597.23;;;2.93;74.16
50682;BME280;36779;52.168;20.878;2023-03-04T14:10:23;99590.20;;;2.67;74.11
50682;BME280;36779;52.168;20.878;2023-03-04T14:13:14;99585.67;;;2.52;74.28
50682;BME280;36779;52.168;20.878;2023-03-04T14:16:06;99579.60;;;2.47;74.30
50682;BME280;36779;52.168;20.878;2023-03-04T14:19:00;99570.67;;;2.48;74.50
50682;BME280;36779;52.168;20.878;2023-03-04T14:21:53;99572.75;;;2.53;74.40
50682;BME280;36779;52.168;20.878;2023-03-04T14:24:56;99578.04;;;2.51;74.38
50682;BME280;36779;52.168;20.878;2023-03-04T14:27:49;99581.28;;;2.48;74.48
50682;BME280;36779;52.168;20.878;2023-03-04T14:30:40;99578.09;;;2.42;74.48
50682;BME280;36779;52.168;20.878;2023-03-04T14:33:33;99578.29;;;2.40;74.47
50682;BME280;36779;52.168;20.878;2023-03-04T14:36:24;99584.80;;;2.37;74.34
50682;BME280;36779;52.168;20.878;2023-03-04T14:39:17;99588.39;;;2.36;74.46
50682;BME280;36779;52.168;20.878;2023-03-04T14:42:13;99591.12;;;2.31;74.37
50682;BME280;36779;52.168;20.878;2023-03-04T14:45:08;99589.13;;;2.25;74.40
50682;BME280;36779;52.168;20.878;2023-03-04T14:48:04;99589.23;;;2.18;74.37
50682;BME280;36779;52.168;20.878;2023-03-04T14:50:57;99590.48;;;2.11;74.38
50682;BME280;36779;52.168;20.878;2023-03-04T14:53:55;99591.41;;;2.02;74.34
50682;BME280;36779;52.168;20.878;2023-03-04T14:56:46;99601.48;;;1.95;74.34
50682;BME280;36779;52.168;20.878;2023-03-04T14:59:37;99606.73;;;1.93;74.48
50682;BME280;36779;52.168;20.878;2023-03-04T15:02:29;99604.29;;;1.93;74.52
50682;BME280;36779;52.168;20.878;2023-03-04T15:05:27;99606.00;;;1.95;74.80
50682;BME280;36779;52.168;20.878;2023-03-04T15:08:21;99606.47;;;2.02;74.79
50682;BME280;36779;52.168;20.878;2023-03-04T15:11:22;99599.60;;;2.11;74.96
50682;BME280;36779;52.168;20.878;2023-03-04T15:14:45;99605.02;;;2.18;74.80
50682;BME280;36779;52.168;20.878;2023-03-04T15:17:41;99612.02;;;2.22;74.82
50682;BME280;36779;52.168;20.878;2023-03-04T15:20:33;99618.01;;;2.26;74.88
50682;BME280;36779;52.168;20.878;2023-03-04T15:23:28;99623.54;;;2.31;74.93
50682;BME280;36779;52.168;20.878;2023-03-04T15:26:21;99637.98;;;2.30;74.81
50682;BME280;36779;52.168;20.878;2023-03-04T15:29:31;99642.48;;;2.23;74.58
50682;BME280;36779;52.168;20.878;2023-03-04T15:32:23;99648.32;;;2.16;74.53
50682;BME280;36779;52.168;20.878;2023-03-04T15:35:14;99653.33;;;2.10;74.46
50682;BME280;36779;52.168;20.878;2023-03-04T15:38:06;99656.45;;;2.06;74.32
50682;BME280;36779;52.168;20.878;2023-03-04T15:41:00;99660.83;;;2.02;74.31
50682;BME280;36779;52.168;20.878;2023-03-04T15:43:50;99665.91;;;1.98;74.29
50682;BME280;36779;52.168;20.878;2023-03-04T15:46:41;99673.23;;;1.94;74.12
50682;BME280;36779;52.168;20.878;2023-03-04T15:49:31;99675.97;;;1.88;73.99
50682;BME280;36779;52.168;20.878;2023-03-04T15:52:43;99685.25;;;1.80;73.93
50682;BME280;36779;52.168;20.878;2023-03-04T15:55:35;99698.48;;;1.74;73.85
50682;BME280;36779;52.168;20.878;2023-03-04T15:58:28;99715.81;;;1.70;73.64
50682;BME280;36779;52.168;20.878;2023-03-04T16:01:28;99725.23;;;1.63;73.47